Time;durP1;ratioP1;P1;durP2;ratioP2;P2;SDS_P1;SDS_P2;PMS_P1;PMS_P2;Temp;Humidity;BMP_temperature;BMP_pressure;BME280_temperature;BME280_humidity;BME280_pressure;Samples;Min_cycle;Max_cycle;Signal;HPM_P1;HPM_P2
2023/07/03 00:00:56;;;;;;;24.23;6.22;;;15.70;99.90;;;;;;5086233;28;20094;-71
2023/07/03 00:03:22;;;;;;;22.20;6.15;;;15.70;99.90;;;;;;5059954;28;20427;-70
2023/07/03 00:05:49;;;;;;;22.10;5.65;;;15.70;99.90;;;;;;5085555;28;20047;-70
2023/07/03 00:08:16;;;;;;;19.58;5.55;;;15.70;99.90;;;;;;5086611;28;20427;-72
2023/07/03 00:10:42;;;;;;;24.45;6.15;;;15.70;99.90;;;;;;5071944;28;20533;-70
2023/07/03 00:13:08;;;;;;;21.40;6.13;;;15.70;99.90;;;;;;5048873;28;20470;-69
2023/07/03 00:15:34;;;;;;;20.00;5.38;;;15.70;99.90;;;;;;5049755;28;20106;-67
2023/07/03 00:17:59;;;;;;;20.38;5.85;;;15.70;99.90;;;;;;5066123;28;20041;-70
2023/07/03 00:20:27;;;;;;;19.00;5.32;;;15.70;99.90;;;;;;5065773;28;20055;-69
2023/07/03 00:22:56;;;;;;;20.52;5.50;;;15.70;99.90;;;;;;5049544;28;20833;-68
2023/07/03 00:25:23;;;;;;;21.17;5.35;;;15.70;99.90;;;;;;5049162;28;20400;-70
2023/07/03 00:27:49;;;;;;;22.00;6.60;;;15.60;99.90;;;;;;5065935;28;20180;-69
2023/07/03 00:30:15;;;;;;;23.23;5.65;;;15.60;99.90;;;;;;5049756;28;20055;-69
2023/07/03 00:32:42;;;;;;;21.67;5.88;;;15.60;99.90;;;;;;5065938;28;20036;-68
2023/07/03 00:35:08;;;;;;;18.27;5.30;;;15.60;99.90;;;;;;5049730;28;20430;-70
2023/07/03 00:37:34;;;;;;;25.23;4.93;;;15.60;99.90;;;;;;5065737;28;20048;-72
2023/07/03 00:40:00;;;;;;;19.45;5.72;;;15.60;99.90;;;;;;5049188;28;20094;-69
2023/07/03 00:42:27;;;;;;;17.33;4.80;;;15.60;99.90;;;;;;5065279;28;20036;-70
2023/07/03 00:44:53;;;;;;;21.45;5.55;;;15.60;99.90;;;;;;5066335;28;20040;-71
2023/07/03 00:47:19;;;;;;;18.10;5.60;;;15.60;99.90;;;;;;5065009;28;20469;-73
2023/07/03 00:49:45;;;;;;;19.05;5.05;;;15.60;99.90;;;;;;5049477;28;20067;-68
2023/07/03 00:52:12;;;;;;;20.15;5.30;;;15.60;99.90;;;;;;5064904;28;20193;-68
2023/07/03 00:54:41;;;;;;;16.70;5.78;;;15.60;99.90;;;;;;5065782;28;20742;-65
2023/07/03 00:57:11;;;;;;;18.83;5.00;;;15.60;99.90;;;;;;5064706;28;20040;-69
2023/07/03 00:59:37;;;;;;;20.27;5.22;;;15.60;99.90;;;;;;5064774;28;20044;-68
2023/07/03 01:02:29;;;;;;;17.67;4.97;;;15.60;99.90;;;;;;5064963;28;20498;-69
2023/07/03 01:05:05;;;;;;;19.10;4.78;;;15.50;99.90;;;;;;5059891;28;20048;-72
2023/07/03 01:07:34;;;;;;;21.33;5.03;;;15.50;99.90;;;;;;5064930;28;20093;-68
2023/07/03 01:10:11;;;;;;;19.67;5.03;;;15.50;99.90;;;;;;5085625;28;20566;-65
2023/07/03 01:12:40;;;;;;;22.67;4.68;;;15.50;99.90;;;;;;5070713;28;20762;-71
2023/07/03 01:15:09;;;;;;;18.88;5.10;;;15.50;99.90;;;;;;5065821;28;20039;-70
2023/07/03 01:17:37;;;;;;;20.50;4.50;;;15.50;99.90;;;;;;5064686;28;20048;-71
2023/07/03 01:20:04;;;;;;;22.13;5.00;;;15.50;99.90;;;;;;5048685;28;20497;-69
2023/07/03 01:23:01;;;;;;;16.90;4.50;;;15.50;99.90;;;;;;5064542;28;20407;-69
2023/07/03 01:25:27;;;;;;;16.75;4.80;;;15.60;99.90;;;;;;5068124;28;20511;-65
2023/07/03 01:27:57;;;;;;;20.48;5.03;;;15.50;99.90;;;;;;5081300;28;20047;-69
2023/07/03 01:30:24;;;;;;;16.80;4.47;;;15.60;99.90;;;;;;5048361;28;20048;-72
2023/07/03 01:32:52;;;;;;;20.13;4.90;;;15.50;99.90;;;;;;5048318;28;20523;-66
2023/07/03 01:35:19;;;;;;;19.13;4.75;;;15.50;99.90;;;;;;5047911;28;20087;-67
2023/07/03 01:37:47;;;;;;;17.50;4.75;;;15.60;99.90;;;;;;5064795;28;20053;-65
2023/07/03 01:40:16;;;;;;;16.98;4.65;;;15.60;99.90;;;;;;5047668;28;20044;-67
2023/07/03 01:42:44;;;;;;;16.20;4.20;;;15.60;99.90;;;;;;5070488;28;20044;-70
2023/07/03 01:45:10;;;;;;;14.57;4.90;;;15.60;99.90;;;;;;5048502;28;20074;-67
2023/07/03 01:47:37;;;;;;;15.65;4.63;;;15.60;99.90;;;;;;5063713;28;20076;-68
2023/07/03 01:50:06;;;;;;;15.68;4.95;;;15.60;99.90;;;;;;5064792;28;20513;-67
2023/07/03 01:52:39;;;;;;;19.88;5.10;;;15.70;99.90;;;;;;5064108;28;20754;-70
2023/07/03 01:55:07;;;;;;;23.05;4.78;;;15.60;99.90;;;;;;5047388;28;20179;-70
2023/07/03 01:57:48;;;;;;;17.95;4.53;;;15.70;99.90;;;;;;5063101;28;20063;-69
2023/07/03 02:00:21;;;;;;;25.42;5.00;;;15.70;99.90;;;;;;5047550;28;20105;-70
2023/07/03 02:02:50;;;;;;;18.37;5.07;;;15.70;99.90;;;;;;5047124;28;20049;-68
2023/07/03 02:05:22;;;;;;;14.70;3.50;;;15.70;99.90;;;;;;5063576;28;20048;-67
2023/07/03 02:07:54;;;;;;;15.32;3.63;;;15.70;99.90;;;;;;5063482;28;20135;-69
2023/07/03 02:10:20;;;;;;;18.42;3.65;;;15.60;99.90;;;;;;5063616;28;20044;-69
2023/07/03 02:12:46;;;;;;;13.27;4.20;;;15.50;99.90;;;;;;5063454;28;20032;-68
2023/07/03 02:15:14;;;;;;;14.25;3.60;;;15.40;99.90;;;;;;5064488;28;20090;-73
2023/07/03 02:17:40;;;;;;;19.80;4.28;;;15.40;99.90;;;;;;5063593;28;20036;-68
2023/07/03 02:20:08;;;;;;;19.05;4.53;;;15.40;99.90;;;;;;5064297;28;20049;-70
2023/07/03 02:22:33;;;;;;;13.55;3.72;;;15.30;99.90;;;;;;5063447;28;20089;-72
2023/07/03 02:24:59;;;;;;;15.70;4.07;;;15.30;99.90;;;;;;5062338;28;20083;-68
2023/07/03 02:27:25;;;;;;;12.95;3.95;;;15.30;99.90;;;;;;5063098;28;20098;-70
2023/07/03 02:29:51;;;;;;;17.20;4.05;;;15.30;99.90;;;;;;5063965;28;20044;-69
2023/07/03 02:32:16;;;;;;;20.67;4.57;;;15.30;99.90;;;;;;5063332;28;20603;-71
2023/07/03 02:34:42;;;;;;;21.90;4.63;;;15.20;99.90;;;;;;5063797;28;20119;-70
2023/07/03 02:37:09;;;;;;;12.52;3.75;;;15.30;99.90;;;;;;5062750;28;20045;-72
2023/07/03 02:39:35;;;;;;;16.20;3.50;;;15.20;99.90;;;;;;5063897;28;20040;-70
2023/07/03 02:42:01;;;;;;;20.77;4.05;;;15.20;99.90;;;;;;5063643;28;20040;-67
2023/07/03 02:44:26;;;;;;;14.57;3.70;;;15.20;99.90;;;;;;5077525;28;20036;-68
2023/07/03 02:46:52;;;;;;;16.13;4.53;;;15.20;99.90;;;;;;5083281;28;20044;-68
2023/07/03 02:49:17;;;;;;;17.27;4.10;;;15.20;99.90;;;;;;5068595;28;20049;-71
2023/07/03 02:51:43;;;;;;;14.32;3.58;;;15.20;99.90;;;;;;5046413;28;20048;-69
2023/07/03 02:54:09;;;;;;;13.23;3.10;;;15.10;99.90;;;;;;5063917;28;20455;-71
2023/07/03 02:56:36;;;;;;;12.10;3.60;;;15.20;99.90;;;;;;5047617;28;20037;-67
2023/07/03 02:59:02;;;;;;;12.70;3.08;;;15.20;99.90;;;;;;5063676;28;20282;-70
2023/07/03 03:01:28;;;;;;;16.45;3.55;;;15.20;99.90;;;;;;5047210;28;20047;-74
2023/07/03 03:03:55;;;;;;;13.85;3.00;;;15.30;99.90;;;;;;5045896;28;20121;-69
2023/07/03 03:06:20;;;;;;;17.08;3.20;;;15.30;99.90;;;;;;5063008;28;20087;-69
2023/07/03 03:08:46;;;;;;;14.57;3.20;;;15.30;99.90;;;;;;5062929;28;20271;-70
2023/07/03 03:11:13;;;;;;;14.93;2.95;;;15.20;99.90;;;;;;5063003;28;20070;-71
2023/07/03 03:13:39;;;;;;;17.85;3.70;;;15.30;99.90;;;;;;5046849;28;20503;-69
2023/07/03 03:16:05;;;;;;;11.55;2.80;;;15.20;99.90;;;;;;5063649;28;20105;-68
2023/07/03 03:18:30;;;;;;;18.30;4.80;;;15.20;99.90;;;;;;5062756;28;20097;-69
2023/07/03 03:20:56;;;;;;;14.68;2.92;;;15.20;99.90;;;;;;5062961;28;20044;-69
2023/07/03 03:23:22;;;;;;;13.23;3.28;;;15.20;99.90;;;;;;5063498;28;20048;-69
2023/07/03 03:25:47;;;;;;;12.95;3.00;;;15.10;99.90;;;;;;5067347;28;20036;-69
2023/07/03 03:28:16;;;;;;;15.45;2.97;;;15.10;99.90;;;;;;5061158;28;20458;-69
2023/07/03 03:30:43;;;;;;;13.70;2.70;;;15.00;99.90;;;;;;5063504;28;20143;-67
2023/07/03 03:33:08;;;;;;;15.40;3.10;;;14.90;99.90;;;;;;5063372;28;20051;-70
2023/07/03 03:35:34;;;;;;;12.40;3.20;;;14.90;99.90;;;;;;5065229;28;20044;-67
2023/07/03 03:38:00;;;;;;;13.57;2.95;;;14.90;99.90;;;;;;5049924;28;20048;-66
2023/07/03 03:40:25;;;;;;;16.05;3.80;;;14.80;99.90;;;;;;5050250;28;20048;-70
2023/07/03 03:42:51;;;;;;;9.45;2.42;;;14.90;99.90;;;;;;5049653;28;20369;-69
2023/07/03 03:45:17;;;;;;;8.55;2.55;;;14.90;99.90;;;;;;5066904;28;20036;-67
2023/07/03 03:47:42;;;;;;;13.68;2.80;;;15.00;99.90;;;;;;5066425;28;20066;-68
2023/07/03 03:50:08;;;;;;;18.13;3.47;;;15.00;99.90;;;;;;5050805;28;20590;-69
2023/07/03 03:52:36;;;;;;;14.45;3.65;;;15.10;99.90;;;;;;5066309;28;20086;-70
2023/07/03 03:55:02;;;;;;;15.48;3.10;;;15.10;99.90;;;;;;5066825;28;20044;-69
2023/07/03 03:57:28;;;;;;;13.40;3.03;;;15.10;99.90;;;;;;5049072;28;20044;-67
2023/07/03 03:59:54;;;;;;;14.32;2.72;;;15.10;99.90;;;;;;5050312;28;20076;-68
2023/07/03 04:02:20;;;;;;;13.27;2.90;;;15.10;99.90;;;;;;5066731;28;20044;-68
2023/07/03 04:04:46;;;;;;;16.52;2.88;;;15.20;99.90;;;;;;5071718;28;20475;-68
2023/07/03 04:07:12;;;;;;;12.55;3.13;;;15.30;99.90;;;;;;5064857;28;20314;-66
2023/07/03 04:09:38;;;;;;;14.25;3.40;;;15.40;99.90;;;;;;5082986;28;20052;-69
2023/07/03 04:12:04;;;;;;;16.98;3.00;;;15.50;99.90;;;;;;5099248;28;20040;-70
2023/07/03 04:14:30;;;;;;;16.00;3.03;;;15.70;99.90;;;;;;5054759;28;20538;-70
2023/07/03 04:16:57;;;;;;;15.63;3.10;;;15.80;99.90;;;;;;5065560;28;20083;-67
2023/07/03 04:19:23;;;;;;;18.52;3.28;;;15.90;99.90;;;;;;5066118;28;20055;-67
2023/07/03 04:21:49;;;;;;;12.35;3.03;;;16.10;99.90;;;;;;5060717;28;20086;-70
2023/07/03 04:24:14;;;;;;;9.32;2.78;;;16.20;99.90;;;;;;5065547;28;20064;-71
2023/07/03 04:26:41;;;;;;;15.35;3.10;;;16.30;99.90;;;;;;5082770;28;20484;-72
2023/07/03 04:29:07;;;;;;;12.65;3.05;;;16.40;99.90;;;;;;5056703;28;20047;-66
2023/07/03 04:31:33;;;;;;;9.73;2.85;;;16.50;99.90;;;;;;5066345;28;20715;-67
2023/07/03 04:33:59;;;;;;;11.95;2.50;;;16.60;99.90;;;;;;5065864;28;20399;-69
2023/07/03 04:36:25;;;;;;;14.02;2.42;;;16.70;99.90;;;;;;5065786;28;20502;-67
2023/07/03 04:38:57;;;;;;;15.20;3.35;;;16.80;99.90;;;;;;5065126;28;20474;-69
2023/07/03 04:41:29;;;;;;;14.70;3.25;;;16.80;99.90;;;;;;5066002;28;20094;-67
2023/07/03 04:43:57;;;;;;;13.52;2.72;;;16.90;99.80;;;;;;5065164;28;20068;-66
2023/07/03 04:46:26;;;;;;;15.35;3.00;;;16.90;99.70;;;;;;5048888;28;20054;-68
2023/07/03 04:49:00;;;;;;;11.15;2.70;;;17.00;99.70;;;;;;5075932;28;20044;-67
2023/07/03 04:51:30;;;;;;;9.75;3.08;;;17.10;99.60;;;;;;5068279;28;20044;-66
2023/07/03 04:54:00;;;;;;;12.10;2.53;;;17.10;99.50;;;;;;5085998;28;20077;-70
2023/07/03 04:56:28;;;;;;;12.50;2.53;;;17.10;99.40;;;;;;5078859;28;20492;-68
2023/07/03 04:58:56;;;;;;;13.68;2.33;;;17.10;99.30;;;;;;5065918;28;20045;-70
2023/07/03 05:01:25;;;;;;;14.35;2.53;;;17.60;99.00;;;;;;5049268;28;20075;-71
2023/07/03 05:03:50;;;;;;;12.15;2.88;;;18.20;98.60;;;;;;5076626;28;20056;-69
2023/07/03 05:06:16;;;;;;;11.65;2.85;;;18.50;98.10;;;;;;5065354;28;20117;-69
2023/07/03 05:08:42;;;;;;;14.07;2.78;;;18.40;98.00;;;;;;5064930;28;20036;-65
2023/07/03 05:11:07;;;;;;;12.85;2.47;;;18.00;98.10;;;;;;5064724;28;20052;-70
2023/07/03 05:13:33;;;;;;;13.93;2.85;;;17.90;98.30;;;;;;5065115;28;20079;-71
2023/07/03 05:15:58;;;;;;;11.95;3.25;;;17.80;98.40;;;;;;5065188;28;20082;-68
2023/07/03 05:18:24;;;;;;;10.15;2.33;;;18.00;98.40;;;;;;5064417;28;20098;-69
2023/07/03 05:20:50;;;;;;;16.08;2.55;;;18.30;98.10;;;;;;5072052;28;20472;-68
2023/07/03 05:23:15;;;;;;;11.18;2.67;;;18.70;98.00;;;;;;5064866;28;20094;-68
2023/07/03 05:25:42;;;;;;;11.00;2.58;;;18.70;97.90;;;;;;5064672;28;20491;-70
2023/07/03 05:28:08;;;;;;;12.77;2.60;;;18.60;98.00;;;;;;5052639;28;20055;-71
2023/07/03 05:30:34;;;;;;;9.93;2.60;;;18.40;98.00;;;;;;5065831;28;20127;-68
2023/07/03 05:33:00;;;;;;;9.85;2.70;;;18.30;98.10;;;;;;5065439;28;20045;-69
2023/07/03 05:35:26;;;;;;;10.48;2.42;;;18.20;97.90;;;;;;5065684;28;20048;-68
2023/07/03 05:37:52;;;;;;;15.10;2.80;;;18.20;98.00;;;;;;5065188;28;20048;-65
2023/07/03 05:40:18;;;;;;;15.68;2.63;;;17.90;98.10;;;;;;5064950;28;20048;-71
2023/07/03 05:42:44;;;;;;;14.25;2.72;;;17.70;98.40;;;;;;5064612;28;20044;-68
2023/07/03 05:45:10;;;;;;;14.48;2.38;;;17.60;98.50;;;;;;5084707;28;20071;-66
2023/07/03 05:47:36;;;;;;;11.73;2.47;;;17.50;98.70;;;;;;5067554;28;20399;-70
2023/07/03 05:50:02;;;;;;;14.70;2.50;;;17.50;98.90;;;;;;5066215;28;20051;-65
2023/07/03 05:52:28;;;;;;;9.07;2.08;;;17.70;99.00;;;;;;5079379;28;20032;-67
2023/07/03 05:54:54;;;;;;;12.10;2.53;;;17.60;99.00;;;;;;5067549;28;20229;-65
2023/07/03 05:57:20;;;;;;;8.75;2.20;;;17.40;99.10;;;;;;5083574;28;20480;-65
2023/07/03 05:59:48;;;;;;;13.57;2.85;;;17.20;99.40;;;;;;5066843;28;20040;-67
2023/07/03 06:02:14;;;;;;;11.25;2.40;;;17.10;99.70;;;;;;5047370;28;20052;-69
2023/07/03 06:04:40;;;;;;;16.48;2.50;;;16.90;99.90;;;;;;5064232;28;20049;-69
2023/07/03 06:07:10;;;;;;;12.43;2.60;;;16.70;99.90;;;;;;5064819;28;20144;-68
2023/07/03 06:09:37;;;;;;;16.38;2.58;;;16.60;99.90;;;;;;5063568;28;20036;-68
2023/07/03 06:12:03;;;;;;;14.82;3.10;;;16.50;99.90;;;;;;5064086;28;20127;-69
2023/07/03 06:14:30;;;;;;;12.85;2.17;;;16.50;99.90;;;;;;5063979;28;20040;-66
2023/07/03 06:16:57;;;;;;;15.40;3.10;;;16.50;99.90;;;;;;5064793;28;20049;-71
2023/07/03 06:19:24;;;;;;;15.40;2.72;;;16.50;99.90;;;;;;5064380;28;20093;-71
2023/07/03 06:21:50;;;;;;;11.95;2.90;;;16.50;99.90;;;;;;5047538;28;20384;-67
2023/07/03 06:24:15;;;;;;;14.82;2.97;;;16.50;99.90;;;;;;5046774;28;20101;-66
2023/07/03 06:26:43;;;;;;;17.75;2.88;;;16.60;99.90;;;;;;5046824;28;20032;-71
2023/07/03 06:29:10;;;;;;;11.88;2.33;;;16.70;99.90;;;;;;5063773;28;20083;-69
2023/07/03 06:31:36;;;;;;;17.67;2.67;;;16.80;99.90;;;;;;5064134;28;20181;-68
2023/07/03 06:34:03;;;;;;;14.88;2.42;;;16.90;99.90;;;;;;5047006;28;20127;-70
2023/07/03 06:36:29;;;;;;;9.32;2.25;;;17.00;99.90;;;;;;5046645;28;20045;-65
2023/07/03 06:38:56;;;;;;;14.77;2.38;;;17.10;99.90;;;;;;5063798;28;20041;-70
2023/07/03 06:41:28;;;;;;;11.73;2.30;;;17.00;99.90;;;;;;5063532;28;20033;-68
2023/07/03 06:43:55;;;;;;;13.88;2.08;;;17.00;99.90;;;;;;5063561;28;20244;-71
2023/07/03 06:46:22;;;;;;;14.82;2.35;;;16.90;99.90;;;;;;5064279;28;20376;-65
2023/07/03 06:48:48;;;;;;;9.73;1.65;;;16.80;99.90;;;;;;5046905;28;20522;-69
2023/07/03 06:51:14;;;;;;;10.82;1.92;;;16.70;99.90;;;;;;5062865;28;20048;-69
2023/07/03 06:53:41;;;;;;;18.83;2.78;;;16.60;99.90;;;;;;5063854;28;20052;-69
2023/07/03 06:56:08;;;;;;;13.18;2.63;;;16.30;99.90;;;;;;5063739;28;20371;-63
2023/07/03 06:58:34;;;;;;;14.70;2.97;;;16.00;99.90;;;;;;5064097;28;20558;-67
2023/07/03 07:01:08;;;;;;;15.15;3.10;;;15.70;99.90;;;;;;5064084;28;20172;-67
2023/07/03 07:03:40;;;;;;;16.00;3.13;;;15.50;99.90;;;;;;5065684;28;20573;-72
2023/07/03 07:06:10;;;;;;;14.30;3.20;;;15.30;99.90;;;;;;5065456;28;20044;-69
2023/07/03 07:08:36;;;;;;;15.60;3.15;;;15.20;99.90;;;;;;5083063;28;20043;-68
2023/07/03 07:11:03;;;;;;;18.33;3.63;;;15.20;99.90;;;;;;5084865;28;20031;-64
2023/07/03 07:13:28;;;;;;;17.88;3.35;;;15.10;99.90;;;;;;5057994;28;20396;-68
2023/07/03 07:15:54;;;;;;;15.02;3.03;;;14.90;99.90;;;;;;5066454;28;20048;-65
2023/07/03 07:18:19;;;;;;;13.55;3.33;;;15.00;99.90;;;;;;5080453;28;20120;-67
2023/07/03 07:20:45;;;;;;;16.45;3.05;;;15.10;99.90;;;;;;5059056;28;20047;-68
2023/07/03 07:23:11;;;;;;;17.13;3.45;;;15.10;99.90;;;;;;5088323;28;20035;-71
2023/07/03 07:25:36;;;;;;;18.10;3.30;;;15.30;99.90;;;;;;5089053;28;20036;-67
2023/07/03 07:28:02;;;;;;;18.30;3.38;;;15.60;99.90;;;;;;5084063;28;20036;-72
2023/07/03 07:30:28;;;;;;;16.05;3.55;;;15.70;99.90;;;;;;5086794;28;20055;-67
2023/07/03 07:32:54;;;;;;;11.80;2.75;;;15.90;99.90;;;;;;5083662;28;20071;-66
2023/07/03 07:35:19;;;;;;;19.20;3.17;;;16.00;99.90;;;;;;5069370;28;20686;-69
2023/07/03 07:37:45;;;;;;;15.35;3.00;;;16.10;99.90;;;;;;5068827;28;20048;-72
2023/07/03 07:40:12;;;;;;;16.48;3.20;;;16.20;99.90;;;;;;5067259;28;20561;-70
2023/07/03 07:42:37;;;;;;;13.30;2.70;;;16.30;99.90;;;;;;5066461;28;20910;-71
2023/07/03 07:45:04;;;;;;;15.77;2.85;;;16.30;99.90;;;;;;5067224;28;20048;-69
2023/07/03 07:47:31;;;;;;;12.57;2.80;;;16.20;99.90;;;;;;5066342;28;20476;-71
2023/07/03 07:49:58;;;;;;;13.18;2.90;;;16.20;99.90;;;;;;5083777;28;20060;-68
2023/07/03 07:52:24;;;;;;;13.43;1.95;;;16.10;99.90;;;;;;5050028;28;20556;-69
2023/07/03 07:54:57;;;;;;;10.23;2.38;;;16.00;99.90;;;;;;5066705;28;20044;-68
2023/07/03 07:57:24;;;;;;;9.87;2.33;;;15.90;99.90;;;;;;5049599;28;20692;-72
2023/07/03 07:59:50;;;;;;;14.43;2.47;;;15.80;99.90;;;;;;5049810;28;20048;-64
2023/07/03 08:02:15;;;;;;;12.38;2.85;;;15.80;99.90;;;;;;5082921;28;20037;-69
2023/07/03 08:04:41;;;;;;;11.30;2.28;;;15.80;99.90;;;;;;5083157;28;20056;-64
2023/07/03 08:07:06;;;;;;;11.57;2.75;;;15.80;99.90;;;;;;5066226;28;20032;-66
2023/07/03 08:09:33;;;;;;;12.70;2.67;;;15.80;99.90;;;;;;5049536;28;20131;-67
2023/07/03 08:12:04;;;;;;;11.85;2.53;;;15.80;99.90;;;;;;5049653;28;20148;-69
2023/07/03 08:14:30;;;;;;;10.77;2.25;;;15.80;99.90;;;;;;5062784;28;20040;-66
2023/07/03 08:16:56;;;;;;;12.93;1.95;;;15.90;99.90;;;;;;5069341;28;20101;-66
2023/07/03 08:19:22;;;;;;;13.60;2.55;;;15.90;99.90;;;;;;5086921;28;20488;-70
2023/07/03 08:21:48;;;;;;;10.13;2.17;;;16.00;99.90;;;;;;5075549;28;20120;-71
2023/07/03 08:24:14;;;;;;;13.05;2.35;;;16.00;99.90;;;;;;5049479;28;20522;-71
2023/07/03 08:26:41;;;;;;;9.43;2.17;;;16.10;99.90;;;;;;5048669;28;20051;-67
2023/07/03 08:29:08;;;;;;;15.80;2.83;;;16.10;99.90;;;;;;5065976;28;20496;-72
2023/07/03 08:31:36;;;;;;;10.25;2.33;;;16.20;99.90;;;;;;5066291;28;20052;-73
2023/07/03 08:34:02;;;;;;;9.32;2.15;;;16.30;99.90;;;;;;5065490;28;20037;-72
2023/07/03 08:36:28;;;;;;;11.38;2.15;;;16.60;99.90;;;;;;5084392;28;20665;-65
2023/07/03 08:38:55;;;;;;;6.65;1.90;;;16.70;99.90;;;;;;5069028;28;20142;-68
2023/07/03 08:41:21;;;;;;;9.80;2.13;;;16.80;99.90;;;;;;5079993;28;20045;-71
2023/07/03 08:43:51;;;;;;;8.98;1.70;;;16.80;99.90;;;;;;5075991;28;20043;-71
2023/07/03 08:46:21;;;;;;;9.68;2.00;;;16.90;99.90;;;;;;5078925;28;20028;-64
2023/07/03 08:48:51;;;;;;;8.27;2.10;;;17.00;99.90;;;;;;5070049;28;20105;-69
2023/07/03 08:51:19;;;;;;;9.95;2.22;;;17.00;99.90;;;;;;5079921;28;20071;-67
2023/07/03 08:53:50;;;;;;;9.00;1.63;;;17.20;99.90;;;;;;5067077;28;20814;-66
2023/07/03 08:56:24;;;;;;;10.40;2.00;;;17.30;99.90;;;;;;5066199;28;20081;-68
2023/07/03 08:58:52;;;;;;;13.10;1.92;;;17.40;99.90;;;;;;5084534;28;20044;-64
2023/07/03 09:01:36;;;;;;;14.63;2.15;;;17.40;99.90;;;;;;5085330;28;20057;-65
2023/07/03 09:04:17;;;;;;;8.48;1.73;;;17.50;99.90;;;;;;5065519;28;20048;-68
2023/07/03 09:06:56;;;;;;;8.30;1.60;;;17.50;99.90;;;;;;5064971;28;20051;-67
2023/07/03 09:09:29;;;;;;;11.23;2.17;;;17.60;99.90;;;;;;5064571;28;20048;-65
2023/07/03 09:12:06;;;;;;;9.75;2.22;;;17.60;99.90;;;;;;5048366;28;20131;-72
2023/07/03 09:14:47;;;;;;;11.77;1.95;;;17.60;99.90;;;;;;5078971;28;20050;-71
2023/07/03 09:17:13;;;;;;;11.43;1.95;;;17.60;99.90;;;;;;5085293;28;20090;-66
2023/07/03 09:19:46;;;;;;;7.10;1.70;;;17.50;99.90;;;;;;5085520;28;20071;-64
2023/07/03 09:22:22;;;;;;;10.15;1.88;;;17.40;99.90;;;;;;5072238;28;20131;-66
2023/07/03 09:24:51;;;;;;;10.02;2.25;;;17.10;99.90;;;;;;5048442;28;20032;-61
2023/07/03 09:27:23;;;;;;;12.50;2.28;;;17.00;99.90;;;;;;5060937;28;20032;-63
2023/07/03 09:29:49;;;;;;;8.43;2.00;;;17.10;99.90;;;;;;5064991;28;20044;-64
2023/07/03 09:32:28;;;;;;;9.65;1.77;;;17.10;99.90;;;;;;5063601;28;20391;-70
2023/07/03 09:35:02;;;;;;;11.32;1.95;;;17.20;99.90;;;;;;5065476;28;20052;-65
2023/07/03 09:37:28;;;;;;;;;;;17.30;99.90;;;;;;5075911;28;20152;-62
2023/07/03 09:39:54;;;;;;;8.65;1.70;;;17.20;99.90;;;;;;5070174;28;20446;-68
2023/07/03 09:42:21;;;;;;;7.53;1.25;;;17.30;99.90;;;;;;5078152;28;20064;-64
2023/07/03 09:44:49;;;;;;;7.78;1.45;;;17.30;99.90;;;;;;5080080;28;20032;-60
2023/07/03 09:47:31;;;;;;;8.57;1.73;;;17.40;99.90;;;;;;5080730;28;20149;-59
2023/07/03 09:50:08;;;;;;;4.68;1.25;;;17.50;99.70;;;;;;5074664;28;20037;-62
2023/07/03 09:52:44;;;;;;;8.63;1.33;;;17.50;99.60;;;;;;5063735;28;20048;-66
2023/07/03 09:55:11;;;;;;;9.60;1.42;;;17.50;99.80;;;;;;5071447;28;20047;-61
2023/07/03 09:57:38;;;;;;;7.43;1.50;;;17.40;99.80;;;;;;5075827;28;20054;-62
2023/07/03 10:00:14;;;;;;;7.97;1.35;;;17.30;99.00;;;;;;5064700;28;20152;-61
2023/07/03 10:02:42;;;;;;;6.25;1.30;;;17.20;98.90;;;;;;5073171;28;20043;-62
2023/07/03 10:05:16;;;;;;;9.32;1.70;;;17.00;99.30;;;;;;5069596;28;20079;-63
2023/07/03 10:07:46;;;;;;;8.65;1.50;;;16.90;99.80;;;;;;5062263;28;20055;-64
2023/07/03 10:10:19;;;;;;;7.68;1.45;;;16.80;99.90;;;;;;5067291;28;20566;-62
2023/07/03 10:13:11;;;;;;;7.97;1.60;;;16.80;99.90;;;;;;5058002;28;20059;-64
2023/07/03 10:15:39;;;;;;;7.43;1.70;;;16.80;99.90;;;;;;5074688;28;20048;-68
2023/07/03 10:18:13;;;;;;;10.48;1.50;;;16.90;99.90;;;;;;5065674;28;20047;-64
2023/07/03 10:20:44;;;;;;;8.65;1.65;;;17.00;99.90;;;;;;5067339;28;20051;-64
2023/07/03 10:23:17;;;;;;;11.40;1.80;;;17.00;99.90;;;;;;5079315;28;20119;-63
2023/07/03 10:25:49;;;;;;;4.75;1.17;;;17.00;99.90;;;;;;5083522;28;20043;-64
2023/07/03 10:28:23;;;;;;;6.05;1.08;;;16.80;99.90;;;;;;5073987;28;20079;-61
2023/07/03 10:30:55;;;;;;;6.35;1.38;;;16.60;99.90;;;;;;5052190;28;20193;-62
2023/07/03 10:33:26;;;;;;;8.45;1.55;;;16.40;99.90;;;;;;5077226;28;20036;-62
2023/07/03 10:35:53;;;;;;;4.85;1.25;;;16.20;99.90;;;;;;5080918;28;20085;-64
2023/07/03 10:38:39;;;;;;;6.03;1.17;;;16.10;99.90;;;;;;5072783;28;20062;-63
2023/07/03 10:41:20;;;;;;;6.47;1.35;;;16.00;99.90;;;;;;5062875;28;20078;-63
2023/07/03 10:43:57;;;;;;;6.00;1.40;;;15.90;99.90;;;;;;5065061;28;20036;-69
2023/07/03 10:46:30;;;;;;;7.72;1.42;;;16.10;99.90;;;;;;5091093;28;20055;-72
2023/07/03 10:48:59;;;;;;;7.87;1.93;;;16.20;99.90;;;;;;5064587;28;20347;-66
2023/07/03 10:51:40;;;;;;;7.22;1.63;;;16.50;99.90;;;;;;5072996;28;21046;-67
2023/07/03 10:54:17;;;;;;;7.43;1.50;;;16.70;99.90;;;;;;5040830;28;20571;-65
2023/07/03 10:56:50;;;;;;;9.43;1.83;;;17.10;99.90;;;;;;5044498;28;20476;-67
2023/07/03 10:59:32;;;;;;;13.07;1.80;;;17.30;99.90;;;;;;5050194;28;20109;-67
2023/07/03 11:02:17;;;;;;;9.93;1.88;;;17.60;99.90;;;;;;5048827;28;20048;-69
2023/07/03 11:04:49;;;;;;;10.48;1.90;;;17.70;99.90;;;;;;5042875;28;20044;-65
2023/07/03 11:07:39;;;;;;;8.73;1.80;;;18.00;99.90;;;;;;5057944;28;20047;-66
2023/07/03 11:10:17;;;;;;;5.95;1.35;;;18.10;99.90;;;;;;5023477;28;20049;-67
2023/07/03 11:12:51;;;;;;;8.15;1.50;;;18.30;99.50;;;;;;5058360;28;20127;-68
2023/07/03 11:15:19;;;;;;;7.28;1.60;;;18.40;99.10;;;;;;5075803;28;20143;-67
2023/07/03 11:18:04;;;;;;;6.53;1.20;;;18.50;98.40;;;;;;5064873;28;20081;-65
2023/07/03 11:20:40;;;;;;;6.72;1.23;;;18.60;94.60;;;;;;5080463;28;20047;-68
2023/07/03 11:23:14;;;;;;;7.97;1.60;;;18.60;93.80;;;;;;5081504;28;20547;-66
2023/07/03 11:25:51;;;;;;;8.00;1.30;;;18.60;93.60;;;;;;5079357;28;20057;-66
2023/07/03 11:28:38;;;;;;;4.70;1.10;;;18.50;93.90;;;;;;5079486;28;20032;-65
2023/07/03 11:31:15;;;;;;;7.07;1.23;;;18.40;94.00;;;;;;5061338;28;20338;-67
2023/07/03 11:33:42;;;;;;;12.05;1.38;;;18.20;93.60;;;;;;5080891;28;20407;-66
2023/07/03 11:36:43;;;;;;;5.60;1.13;;;18.20;94.00;;;;;;5074721;28;20044;-67
2023/07/03 11:39:22;;;;;;;7.43;1.50;;;18.10;93.90;;;;;;5062745;28;20060;-66
2023/07/03 11:42:21;;;;;;;8.25;1.45;;;18.00;93.70;;;;;;5079293;28;20074;-67
2023/07/03 11:44:56;;;;;;;7.97;1.50;;;17.80;93.90;;;;;;5062889;28;20045;-67
2023/07/03 11:47:30;;;;;;;6.28;1.30;;;17.70;94.50;;;;;;5080414;28;20641;-62
2023/07/03 11:50:01;;;;;;;6.82;1.30;;;17.70;94.50;;;;;;5083018;28;20039;-62
2023/07/03 11:52:38;;;;;;;7.88;1.25;;;17.80;94.90;;;;;;5081393;28;20598;-66
2023/07/03 11:55:21;;;;;;;6.80;1.40;;;17.80;94.20;;;;;;5081653;28;20123;-63
2023/07/03 11:57:55;;;;;;;11.43;1.98;;;17.90;94.30;;;;;;5083561;28;20036;-64
2023/07/03 12:00:28;;;;;;;11.35;1.17;;;18.00;94.30;;;;;;5069027;28;20042;-65
2023/07/03 12:02:56;;;;;;;8.10;1.45;;;18.20;93.80;;;;;;5100504;28;20167;-65
2023/07/03 12:05:50;;;;;;;6.00;1.20;;;18.20;93.60;;;;;;5085459;28;20048;-65
2023/07/03 12:08:18;;;;;;;7.93;1.50;;;18.10;93.50;;;;;;5084117;28;20642;-64
2023/07/03 12:10:52;;;;;;;5.80;1.30;;;18.00;94.20;;;;;;5068246;28;20686;-63
2023/07/03 12:13:47;;;;;;;6.75;1.40;;;17.90;93.90;;;;;;5080903;28;20076;-64
2023/07/03 12:16:12;;;;;;;;;;;17.80;94.60;;;;;;5085417;28;20855;-67
2023/07/03 12:18:38;;;;;;;7.35;1.50;;;17.60;95.00;;;;;;5068443;28;20011;-61
2023/07/03 12:21:05;;;;;;;8.15;1.17;;;17.50;95.40;;;;;;5081251;28;20197;-62
2023/07/03 12:23:43;;;;;;;6.90;1.45;;;17.50;95.70;;;;;;5085232;28;20071;-65
2023/07/03 12:26:15;;;;;;;8.82;1.60;;;17.50;96.20;;;;;;5068068;28;20063;-64
2023/07/03 12:28:41;;;;;;;6.35;1.20;;;17.40;96.50;;;;;;5082572;28;20737;-64
2023/07/03 12:31:14;;;;;;;6.18;1.42;;;17.40;96.70;;;;;;5085882;28;20036;-67
2023/07/03 12:39:17;;;;;;;7.07;1.45;;;17.30;97.00;;;;;;4969138;28;20050;-62
2023/07/03 12:41:43;;;;;;;5.80;1.38;;;17.30;96.70;;;;;;4970335;28;20128;-64
2023/07/03 12:44:12;;;;;;;7.32;1.30;;;17.20;96.60;;;;;;4987585;28;20078;-60
2023/07/03 12:46:42;;;;;;;8.07;1.63;;;17.20;96.80;;;;;;4979249;28;20042;-62
2023/07/03 12:49:17;;;;;;;10.50;1.48;;;17.20;96.20;;;;;;4985348;28;20536;-64
2023/07/03 12:51:56;;;;;;;8.27;1.48;;;17.10;96.10;;;;;;4951953;28;20042;-68
2023/07/03 12:54:23;;;;;;;7.75;1.25;;;17.00;95.90;;;;;;4970638;28;20120;-67
2023/07/03 12:56:52;;;;;;;8.40;1.38;;;16.90;96.30;;;;;;4969412;28;20134;-68